Time;durP1;ratioP1;P1;durP2;ratioP2;P2;SDS_P1;SDS_P2;PMS_P1;PMS_P2;Temp;Humidity;BMP_temperature;BMP_pressure;BME280_temperature;BME280_humidity;BME280_pressure;Samples;Min_cycle;Max_cycle;Signal;HPM_P1;HPM_P2
2022/06/10 00:00:41;;;;;;;7.93;3.35;;;;;;;13.37;88.62;101841.75;5005735;28;20129;-71
2022/06/10 00:03:07;;;;;;;6.97;3.65;;;;;;;13.32;88.78;101843.16;4986470;28;20030;-71
2022/06/10 00:05:36;;;;;;;8.70;3.50;;;;;;;13.25;88.72;101837.69;5005455;28;20034;-71
2022/06/10 00:08:11;;;;;;;7.32;3.42;;;;;;;13.21;88.78;101838.97;5007827;28;20135;-71
2022/06/10 00:10:37;;;;;;;8.75;3.88;;;;;;;13.21;88.82;101831.97;5009117;28;20034;-71
2022/06/10 00:13:04;;;;;;;6.78;4.22;;;;;;;13.22;88.80;101837.97;4988857;28;20037;-71
2022/06/10 00:15:30;;;;;;;7.50;3.90;;;;;;;13.21;88.81;101837.16;5009431;28;20034;-71
2022/06/10 00:17:55;;;;;;;10.93;3.95;;;;;;;13.18;88.77;101837.44;5005748;28;20048;-71
2022/06/10 00:20:25;;;;;;;6.10;3.83;;;;;;;13.13;88.87;101837.09;4990019;28;20041;-71
2022/06/10 00:22:51;;;;;;;6.28;3.75;;;;;;;13.07;89.26;101839.44;5008517;28;20030;-71
2022/06/10 00:25:17;;;;;;;7.50;3.78;;;;;;;13.01;89.57;101839.06;4993273;28;20030;-71
2022/06/10 00:27:43;;;;;;;7.28;3.90;;;;;;;13.01;89.78;101844.28;5008692;28;20479;-71
2022/06/10 00:30:10;;;;;;;10.15;4.32;;;;;;;12.98;89.76;101839.38;4986519;28;20037;-71
2022/06/10 00:32:37;;;;;;;8.23;3.63;;;;;;;12.94;89.73;101838.03;5001408;28;20775;-70
2022/06/10 00:35:03;;;;;;;8.52;3.97;;;;;;;12.94;89.77;101842.41;4988992;28;20033;-71
2022/06/10 00:37:29;;;;;;;7.40;3.78;;;;;;;12.92;89.67;101839.97;5000270;28;20446;-71
2022/06/10 00:39:55;;;;;;;7.13;3.72;;;;;;;12.91;89.71;101846.13;4987605;28;20029;-71
2022/06/10 00:42:20;;;;;;;8.77;4.00;;;;;;;12.88;89.70;101836.00;4982588;28;20029;-71
2022/06/10 00:44:51;;;;;;;7.88;3.72;;;;;;;12.84;89.90;101840.66;4991535;28;20132;-71
2022/06/10 00:47:26;;;;;;;6.55;3.70;;;;;;;12.82;90.31;101840.00;5004435;28;20034;-70
2022/06/10 00:50:00;;;;;;;13.70;4.85;;;;;;;12.83;90.59;101839.06;4988261;28;20101;-71
2022/06/10 00:52:33;;;;;;;10.80;4.60;;;;;;;12.83;89.93;101839.06;5005164;28;20038;-71
2022/06/10 00:55:01;;;;;;;9.15;3.90;;;;;;;12.80;90.15;101834.13;5005673;28;20387;-71
2022/06/10 00:57:34;;;;;;;7.72;3.75;;;;;;;12.81;90.21;101842.78;5001441;28;20038;-71
2022/06/10 01:00:02;;;;;;;;;;;;;;;12.81;90.17;101837.56;5003639;28;20038;-71
2022/06/10 01:02:34;;;;;;;12.90;4.28;;;;;;;12.81;90.01;101837.56;4985746;28;19914;-71
2022/06/10 01:05:04;;;;;;;8.55;3.97;;;;;;;12.80;90.08;101836.72;4999999;28;20030;-71
2022/06/10 01:07:35;;;;;;;8.65;4.22;;;;;;;12.83;89.59;101835.63;5002745;28;20046;-71
2022/06/10 01:10:04;;;;;;;10.75;3.78;;;;;;;12.81;89.67;101837.56;5002271;28;20084;-71
2022/06/10 01:12:39;;;;;;;8.38;4.40;;;;;;;12.80;89.79;101835.91;4997959;28;20050;-71
2022/06/10 01:15:16;;;;;;;8.85;3.60;;;;;;;12.80;89.92;101838.53;4985007;28;20042;-71
2022/06/10 01:18:01;;;;;;;6.43;3.58;;;;;;;12.78;89.75;101841.25;4999007;28;20045;-71
2022/06/10 01:20:45;;;;;;;8.95;4.75;;;;;;;12.77;89.84;101838.81;5001294;28;20030;-71
2022/06/10 01:23:40;;;;;;;9.88;4.93;;;;;;;12.75;90.04;101843.34;5002991;28;20026;-71
2022/06/10 01:29:53;;;;;;;10.57;4.47;;;;;;;12.68;90.59;101835.31;4985761;28;20092;-71
2022/06/10 01:32:37;;;;;;;14.25;5.70;;;;;;;12.64;90.67;101844.38;5002421;28;20476;-71
2022/06/10 01:35:11;;;;;;;12.95;5.30;;;;;;;12.59;91.02;101844.78;4982972;28;20361;-71
2022/06/10 01:37:48;;;;;;;10.20;5.53;;;;;;;12.58;91.06;101847.53;4969749;28;20980;-71
2022/06/10 01:40:49;;;;;;;14.02;6.32;;;;;;;12.59;90.82;101842.19;4987791;28;20045;-71
2022/06/10 01:43:41;;;;;;;16.80;7.55;;;;;;;12.55;90.84;101843.44;4981318;28;20697;-71
2022/06/10 01:46:33;;;;;;;14.52;7.47;;;;;;;12.53;90.65;101845.34;4983023;28;20053;-71
2022/06/10 01:49:29;;;;;;;13.55;6.05;;;;;;;12.48;90.80;101841.56;4999393;28;20803;-71
2022/06/10 01:52:02;;;;;;;14.95;7.55;;;;;;;12.43;90.96;101844.56;4995847;28;20048;-71
2022/06/10 01:54:52;;;;;;;13.27;7.07;;;;;;;12.40;91.10;101843.06;4980168;28;20568;-71
2022/06/10 01:57:37;;;;;;;10.98;7.22;;;;;;;12.39;91.08;101846.63;4967105;28;20041;-71
2022/06/10 02:00:06;;;;;;;11.20;7.55;;;;;;;12.40;91.27;101848.28;4981944;28;21857;-72
2022/06/10 02:02:37;;;;;;;13.45;8.45;;;;;;;12.40;91.27;101852.66;4996717;28;20046;-71
2022/06/10 02:05:19;;;;;;;11.55;7.88;;;;;;;12.36;91.24;101849.53;4986130;28;20080;-71
2022/06/10 02:07:51;;;;;;;14.15;9.07;;;;;;;12.34;91.50;101856.66;4999399;28;20121;-71
2022/06/10 02:10:29;;;;;;;16.58;8.80;;;;;;;12.33;91.01;101856.78;4999429;28;20057;-71
2022/06/10 02:13:06;;;;;;;19.70;8.68;;;;;;;12.29;91.74;101860.66;5000556;28;20159;-71
2022/06/10 02:15:43;;;;;;;14.02;7.82;;;;;;;12.23;92.11;101865.44;4999610;28;20049;-71
2022/06/10 02:18:38;;;;;;;15.52;8.25;;;;;;;12.21;92.37;101869.16;4985210;28;20041;-71
2022/06/10 02:21:11;;;;;;;15.38;8.00;;;;;;;12.19;92.29;101864.09;4984425;28;20054;-71
2022/06/10 02:23:44;;;;;;;14.30;7.03;;;;;;;12.17;92.38;101871.22;4981642;28;20030;-71
2022/06/10 02:26:10;;;;;;;;;;;;;;;12.16;92.61;101863.53;5000780;28;20044;-70
2022/06/10 02:28:41;;;;;;;12.75;6.72;;;;;;;12.15;92.54;101867.09;4984434;28;20566;-70
2022/06/10 02:31:13;;;;;;;17.40;8.35;;;;;;;12.15;92.47;101869.69;4980144;28;20092;-71
2022/06/10 02:33:39;;;;;;;14.77;7.85;;;;;;;12.12;92.31;101870.81;4982236;28;20042;-71
2022/06/10 02:36:14;;;;;;;10.82;7.10;;;;;;;12.10;92.58;101874.50;5000675;28;20030;-71
2022/06/10 02:38:47;;;;;;;13.25;6.78;;;;;;;12.08;92.74;101874.66;4999365;28;20060;-71
2022/06/10 02:41:19;;;;;;;13.75;7.50;;;;;;;12.04;92.56;101875.88;4986846;28;20231;-71
2022/06/10 02:43:51;;;;;;;14.15;7.65;;;;;;;11.98;92.69;101877.25;4999600;28;20049;-71
2022/06/10 02:46:23;;;;;;;15.27;7.82;;;;;;;11.94;93.06;101886.31;4985621;28;20393;-70
2022/06/10 02:49:09;;;;;;;15.13;7.60;;;;;;;11.90;93.36;101882.31;4979861;28;20108;-70
2022/06/10 02:51:35;;;;;;;12.43;7.75;;;;;;;11.88;93.53;101885.03;4982691;28;20542;-71
2022/06/10 02:54:05;;;;;;;17.33;7.28;;;;;;;11.88;93.78;101886.81;5000127;28;20045;-71
2022/06/10 02:56:30;;;;;;;10.57;6.85;;;;;;;11.86;93.65;101888.72;4984841;28;20049;-71
2022/06/10 03:02:04;;;;;;;13.30;7.47;;;;;;;11.83;93.52;101883.81;5002567;28;20042;-71
2022/06/10 03:05:02;;;;;;;10.77;6.50;;;;;;;11.81;93.33;101893.50;5001211;28;20164;-71
2022/06/10 03:07:34;;;;;;;17.63;7.72;;;;;;;11.79;93.26;101883.28;4980651;28;20519;-71
2022/06/10 03:10:12;;;;;;;11.27;6.85;;;;;;;11.78;93.12;101889.41;4985684;28;20029;-71
2022/06/10 03:12:39;;;;;;;14.27;6.38;;;;;;;11.77;92.85;101889.53;4984190;28;20045;-71
2022/06/10 03:15:08;;;;;;;13.00;6.40;;;;;;;11.73;92.91;101881.19;4978868;28;20060;-71
2022/06/10 03:17:42;;;;;;;16.15;5.82;;;;;;;11.73;92.93;101898.56;4983559;28;20161;-71
2022/06/10 03:20:44;;;;;;;9.25;5.70;;;;;;;11.69;93.12;101895.44;4986392;28;20161;-71
2022/06/10 03:23:12;;;;;;;12.82;4.47;;;;;;;11.67;93.27;101897.34;4974716;28;20479;-71
2022/06/10 03:25:53;;;;;;;12.85;5.93;;;;;;;11.67;93.34;101903.34;5000781;28;20034;-71
2022/06/10 03:28:25;;;;;;;12.25;5.47;;;;;;;11.69;93.58;101900.63;4988256;28;20429;-71
2022/06/10 03:31:20;;;;;;;12.13;5.45;;;;;;;11.68;93.87;101906.78;4985221;28;20061;-71
2022/06/10 03:33:59;;;;;;;12.63;4.45;;;;;;;11.68;93.94;101909.41;4995813;28;20048;-71
2022/06/10 03:36:26;;;;;;;12.60;5.40;;;;;;;11.67;94.51;101905.13;5002450;28;20038;-71
2022/06/10 03:38:53;;;;;;;12.30;5.03;;;;;;;11.68;94.66;101912.00;4998658;28;20056;-71
2022/06/10 03:41:25;;;;;;;12.13;4.38;;;;;;;11.72;95.01;101910.75;4983411;28;20083;-71
2022/06/10 03:43:54;;;;;;;11.93;4.10;;;;;;;11.75;94.92;101907.88;4997611;28;20038;-71
2022/06/10 03:46:22;;;;;;;14.27;4.25;;;;;;;11.89;94.67;101898.84;4966596;28;20038;-71
2022/06/10 03:48:50;;;;;;;12.45;4.60;;;;;;;11.91;94.39;101899.56;5000178;28;20034;-71
2022/06/10 03:51:17;;;;;;;8.35;3.80;;;;;;;11.95;94.56;101902.72;4984795;28;20037;-71
2022/06/10 03:53:44;;;;;;;11.07;4.43;;;;;;;11.98;94.47;101905.00;4983453;28;20046;-71
2022/06/10 03:56:10;;;;;;;12.05;3.80;;;;;;;11.98;94.51;101908.47;4981776;28;20176;-73
2022/06/10 03:58:37;;;;;;;9.57;3.28;;;;;;;12.03;94.86;101905.44;4998099;28;20046;-71
2022/06/10 04:01:03;;;;;;;18.55;5.07;;;;;;;12.06;94.76;101907.75;4999525;28;20144;-71
2022/06/10 04:03:28;;;;;;;11.10;3.50;;;;;;;12.11;95.10;101910.78;4973940;28;20124;-71
2022/06/10 04:05:55;;;;;;;12.18;4.32;;;;;;;12.18;94.52;101914.44;4982836;28;20511;-71
2022/06/10 04:08:21;;;;;;;9.55;3.22;;;;;;;12.23;94.30;101914.84;5000671;28;20279;-71
2022/06/10 04:10:47;;;;;;;8.05;3.72;;;;;;;12.37;92.88;101917.97;4982179;28;20059;-71
2022/06/10 04:13:13;;;;;;;7.57;3.22;;;;;;;12.42;92.82;101920.97;5002225;28;20038;-71
2022/06/10 04:15:38;;;;;;;13.98;3.47;;;;;;;12.48;92.75;101923.00;4999727;28;20033;-71
2022/06/10 04:18:04;;;;;;;9.93;3.00;;;;;;;12.54;92.73;101921.63;4996966;28;20046;-71
2022/06/10 04:20:34;;;;;;;11.45;3.90;;;;;;;12.59;92.84;101925.44;4983583;28;20030;-71
2022/06/10 04:23:00;;;;;;;10.27;3.47;;;;;;;12.64;92.05;101925.84;4982105;28;20484;-71
2022/06/10 04:25:25;;;;;;;11.27;3.40;;;;;;;12.69;91.87;101927.19;4999673;28;20037;-71
2022/06/10 04:27:51;;;;;;;9.55;3.72;;;;;;;12.76;92.15;101939.50;4968896;28;20038;-71
2022/06/10 04:30:25;;;;;;;9.60;3.13;;;;;;;12.77;91.73;101935.94;4984492;28;20030;-71
2022/06/10 04:32:51;;;;;;;13.38;3.30;;;;;;;12.85;90.27;101935.22;4980795;28;20046;-71
2022/06/10 04:35:17;;;;;;;11.52;2.70;;;;;;;12.89;90.43;101936.56;4978966;28;20085;-71
2022/06/10 04:37:44;;;;;;;11.40;3.13;;;;;;;12.90;89.94;101929.56;4996854;28;20048;-71
2022/06/10 04:40:14;;;;;;;18.45;3.58;;;;;;;12.98;89.15;101938.31;4985507;28;20516;-71
2022/06/10 04:42:40;;;;;;;9.57;2.33;;;;;;;12.98;89.15;101935.72;5002666;28;20595;-71
2022/06/10 04:45:07;;;;;;;12.05;3.35;;;;;;;13.01;89.21;101935.41;4986392;28;20034;-71
2022/06/10 04:47:32;;;;;;;7.20;3.05;;;;;;;12.99;89.84;101939.94;4988264;28;20034;-71
2022/06/10 04:49:59;;;;;;;10.15;2.80;;;;;;;13.00;90.09;101933.78;5003218;28;20396;-71
2022/06/10 04:52:27;;;;;;;12.57;3.25;;;;;;;13.04;89.77;101929.91;4985291;28;20821;-71
2022/06/10 04:54:53;;;;;;;8.52;4.18;;;;;;;13.09;89.41;101939.91;5002378;28;20036;-71
2022/06/10 04:57:19;;;;;;;8.95;3.10;;;;;;;13.10;89.88;101938.94;4984861;28;20100;-71
2022/06/10 04:59:44;;;;;;;8.90;3.10;;;;;;;13.08;89.86;101934.84;4985501;28;20030;-71
2022/06/10 05:02:10;;;;;;;8.20;2.83;;;;;;;13.07;90.17;101933.19;5002622;28;20041;-71
2022/06/10 05:04:36;;;;;;;8.18;2.80;;;;;;;13.08;90.37;101940.06;4998478;28;20041;-71
2022/06/10 05:07:01;;;;;;;10.63;3.15;;;;;;;13.09;90.74;101932.09;4985364;28;20041;-71
2022/06/10 05:09:26;;;;;;;11.27;2.63;;;;;;;13.10;90.42;101945.94;5002994;28;20045;-71
2022/06/10 05:11:52;;;;;;;11.05;3.17;;;;;;;13.15;89.32;101936.72;4989721;28;20034;-71
2022/06/10 05:14:17;;;;;;;7.88;2.97;;;;;;;13.16;89.56;101935.75;4998577;28;20530;-71
2022/06/10 05:16:43;;;;;;;14.50;3.08;;;;;;;13.20;88.59;101933.66;4986415;28;20038;-71
2022/06/10 05:19:09;;;;;;;11.75;3.55;;;;;;;13.28;87.68;101938.16;5003943;28;20038;-71
2022/06/10 05:21:35;;;;;;;9.85;3.13;;;;;;;13.26;87.58;101933.09;4987279;28;20589;-71
2022/06/10 05:24:00;;;;;;;14.60;2.90;;;;;;;13.25;87.75;101939.25;5001653;28;20038;-71
2022/06/10 05:26:29;;;;;;;14.13;3.28;;;;;;;13.27;88.06;101939.94;4990864;28;20084;-70
2022/06/10 05:28:55;;;;;;;10.85;3.30;;;;;;;13.29;88.24;101943.22;5007838;23;20487;-69
2022/06/10 05:31:21;;;;;;;9.70;3.13;;;;;;;13.31;88.24;101938.72;5000873;28;20047;-69
2022/06/10 05:36:31;;;;;;;11.45;2.60;;;;;;;13.43;88.44;101934.94;4999258;28;20029;-69
2022/06/10 05:38:56;;;;;;;12.57;3.63;;;;;;;13.47;88.44;101943.28;4972624;28;20545;-69
2022/06/10 05:44:06;;;;;;;12.40;3.97;;;;;;;13.67;86.18;101935.31;5000642;28;20076;-69
2022/06/10 05:46:32;;;;;;;13.65;3.08;;;;;;;13.67;86.44;101941.34;5003010;28;20026;-69
2022/06/10 05:48:57;;;;;;;9.18;2.92;;;;;;;13.78;86.27;101937.72;5004238;28;20626;-68
2022/06/10 05:51:23;;;;;;;7.15;2.40;;;;;;;13.77;86.35;101939.50;4986444;28;20034;-69
2022/06/10 05:53:48;;;;;;;17.42;3.67;;;;;;;13.81;86.59;101942.63;4986719;28;20032;-69
2022/06/10 05:56:14;;;;;;;18.70;4.18;;;;;;;13.90;86.98;101949.56;4998440;28;20065;-69
2022/06/10 05:58:39;;;;;;;13.50;3.00;;;;;;;13.95;86.98;101949.09;4988069;28;20112;-68
2022/06/10 06:01:05;;;;;;;8.02;2.83;;;;;;;14.03;86.96;101951.75;4986257;28;20157;-69
2022/06/10 06:03:30;;;;;;;12.48;3.75;;;;;;;14.11;86.63;101951.84;4984568;28;20041;-69
2022/06/10 06:05:56;;;;;;;11.80;3.45;;;;;;;14.24;86.22;101958.44;5010420;28;20073;-69
2022/06/10 06:08:21;;;;;;;10.30;2.65;;;;;;;14.40;85.17;101956.75;5002691;28;20034;-70
2022/06/10 06:10:47;;;;;;;16.73;3.45;;;;;;;14.46;84.17;101965.78;4997272;28;20098;-69
2022/06/10 06:13:12;;;;;;;14.98;2.83;;;;;;;14.46;83.92;101957.94;5002335;28;20095;-69
2022/06/10 06:15:39;;;;;;;16.90;3.90;;;;;;;14.51;83.70;101963.53;4981208;28;20038;-69
2022/06/10 06:18:05;;;;;;;8.73;2.25;;;;;;;14.53;83.84;101963.38;4983293;28;20030;-69
2022/06/10 06:20:31;;;;;;;10.27;2.40;;;;;;;14.58;83.83;101954.16;4982753;28;20419;-69
2022/06/10 06:22:57;;;;;;;15.30;3.40;;;;;;;14.63;83.76;101961.50;4988147;28;20034;-69
2022/06/10 06:25:23;;;;;;;14.32;4.18;;;;;;;14.78;81.02;101964.38;4986723;28;20044;-69
2022/06/10 06:27:49;;;;;;;18.00;4.70;;;;;;;14.78;81.14;101964.38;5014128;28;20030;-69
2022/06/10 06:30:17;;;;;;;12.55;3.65;;;;;;;14.82;81.75;101962.25;4998742;28;20121;-69
2022/06/10 06:32:43;;;;;;;12.40;3.70;;;;;;;14.93;80.71;101973.25;4994517;28;20042;-69
2022/06/10 06:35:09;;;;;;;12.68;3.17;;;;;;;15.03;80.74;101970.53;5010426;28;20037;-69
2022/06/10 06:37:34;;;;;;;15.65;2.75;;;;;;;15.04;81.56;101982.59;5015790;28;20570;-69
2022/06/10 06:40:00;;;;;;;14.65;3.13;;;;;;;15.10;80.91;101975.94;5000253;28;20041;-69
2022/06/10 06:42:25;;;;;;;9.68;3.00;;;;;;;15.39;80.13;101983.41;5002985;28;20029;-69
2022/06/10 06:45:00;;;;;;;13.23;3.97;;;;;;;15.69;79.21;101982.00;4984222;28;20411;-70
2022/06/10 06:47:25;;;;;;;11.00;2.30;;;;;;;16.06;76.84;101979.94;4982410;28;20037;-69
2022/06/10 06:49:51;;;;;;;15.65;4.00;;;;;;;16.22;77.16;101982.53;5012967;28;20033;-69
2022/06/10 06:52:16;;;;;;;16.13;2.97;;;;;;;16.27;76.69;101982.84;4988417;28;20505;-68
2022/06/10 06:54:42;;;;;;;11.48;2.55;;;;;;;16.21;76.95;101980.91;4985633;28;20546;-69
2022/06/10 06:57:07;;;;;;;14.18;3.80;;;;;;;16.30;77.70;101982.53;4986753;28;20033;-69
2022/06/10 06:59:33;;;;;;;9.23;2.70;;;;;;;16.36;78.51;101986.28;5014361;28;20495;-69
2022/06/10 07:01:59;;;;;;;11.90;2.75;;;;;;;16.43;77.89;101991.69;5000738;28;20535;-69
2022/06/10 07:04:25;;;;;;;10.93;2.20;;;;;;;16.45;78.56;101985.28;4986316;28;20092;-69
2022/06/10 07:06:51;;;;;;;11.77;2.05;;;;;;;16.60;78.87;101987.25;5012341;28;20415;-68
2022/06/10 07:09:16;;;;;;;12.40;2.17;;;;;;;16.70;78.26;101988.66;4985006;28;20034;-70
2022/06/10 07:11:42;;;;;;;11.75;2.13;;;;;;;16.89;77.41;101984.06;5006143;28;20759;-69
2022/06/10 07:14:07;;;;;;;11.05;2.45;;;;;;;16.91;76.70;101988.19;5002917;28;20041;-69
2022/06/10 07:16:33;;;;;;;11.25;2.78;;;;;;;16.96;76.18;101997.31;4984844;28;20038;-69
2022/06/10 07:18:59;;;;;;;11.52;2.53;;;;;;;16.99;75.74;101994.34;4987462;28;20568;-69
2022/06/10 07:21:24;;;;;;;10.05;1.73;;;;;;;16.96;76.73;102002.56;5003754;28;20049;-69
2022/06/10 07:23:49;;;;;;;6.40;1.50;;;;;;;17.03;75.49;101998.28;5015422;28;20084;-70
2022/06/10 07:26:16;;;;;;;8.82;2.28;;;;;;;16.90;76.78;101999.63;4982011;28;20034;-69
2022/06/10 07:28:42;;;;;;;10.98;2.03;;;;;;;17.03;76.96;102006.97;4988744;28;20038;-69
2022/06/10 07:31:07;;;;;;;5.60;1.60;;;;;;;16.92;76.84;102010.75;4996468;28;20380;-69
2022/06/10 07:33:35;;;;;;;7.97;1.70;;;;;;;16.95;76.51;102003.53;5014993;28;20034;-70
2022/06/10 07:36:04;;;;;;;6.90;1.63;;;;;;;17.00;76.21;102009.91;4969259;28;20034;-69
2022/06/10 07:38:31;;;;;;;8.57;1.80;;;;;;;16.90;76.87;102011.91;5002249;28;20087;-68
2022/06/10 07:43:42;;;;;;;10.48;1.50;;;;;;;17.08;74.73;102009.91;5002451;28;20721;-69
2022/06/10 07:46:09;;;;;;;7.18;1.77;;;;;;;17.11;74.45;102012.16;4986315;28;20136;-69
2022/06/10 07:48:35;;;;;;;11.45;2.53;;;;;;;17.20;73.01;102018.19;4970942;28;20085;-69
2022/06/10 07:51:00;;;;;;;11.02;1.40;;;;;;;17.15;74.27;102023.13;5002318;28;20018;-69
2022/06/10 07:53:29;;;;;;;10.27;2.20;;;;;;;17.22;72.72;102020.66;5019114;28;20038;-69
2022/06/10 07:55:55;;;;;;;6.93;0.98;;;;;;;17.06;73.66;102024.13;4999631;28;20499;-69
2022/06/10 07:58:20;;;;;;;11.57;1.77;;;;;;;16.97;74.46;102009.41;5013712;28;20046;-69
2022/06/10 08:00:46;;;;;;;6.78;1.42;;;;;;;16.97;75.87;102005.03;4983465;28;20033;-69
2022/06/10 08:03:13;;;;;;;8.57;1.92;;;;;;;17.09;76.27;102013.31;4988256;28;20102;-70
2022/06/10 08:05:38;;;;;;;8.43;1.42;;;;;;;17.02;76.18;102012.38;5002121;28;20586;-69
2022/06/10 08:08:04;;;;;;;11.15;1.42;;;;;;;17.07;75.94;102012.69;4997548;28;20029;-69
2022/06/10 08:10:33;;;;;;;6.68;1.48;;;;;;;17.16;74.66;102008.19;4990355;28;20463;-70
2022/06/10 08:12:59;;;;;;;5.78;0.95;;;;;;;17.16;73.49;102009.03;4984603;28;20033;-69
2022/06/10 08:15:26;;;;;;;7.43;1.52;;;;;;;17.13;73.60;102009.38;5002127;28;20090;-69
2022/06/10 08:17:52;;;;;;;7.20;1.05;;;;;;;17.19;71.95;102008.69;5015144;28;20041;-69
2022/06/10 08:23:18;;;;;;;3.90;1.38;;;;;;;17.26;72.79;102009.63;5005957;28;20077;-70
2022/06/10 08:25:44;;;;;;;7.90;1.35;;;;;;;17.21;72.67;102013.75;5005326;28;20042;-70
2022/06/10 08:28:10;;;;;;;10.68;2.42;;;;;;;17.05;72.76;102012.03;5004721;28;20063;-69
2022/06/10 08:30:36;;;;;;;6.90;1.58;;;;;;;17.19;71.91;102008.69;4989203;28;20125;-69
2022/06/10 08:33:03;;;;;;;13.02;2.05;;;;;;;17.26;69.93;102003.59;4992985;28;20080;-70
2022/06/10 08:35:33;;;;;;;6.53;1.15;;;;;;;17.28;70.91;101994.56;4990004;28;20057;-70
2022/06/10 08:38:00;;;;;;;7.32;2.05;;;;;;;17.38;70.04;101996.97;4989082;28;20143;-69
2022/06/10 08:40:34;;;;;;;8.55;1.67;;;;;;;17.51;71.28;101991.97;4987986;28;20052;-69
2022/06/10 08:43:08;;;;;;;7.88;1.27;;;;;;;17.51;69.69;101996.41;5003013;28;20053;-69
2022/06/10 08:45:53;;;;;;;5.20;1.17;;;;;;;17.65;70.25;102003.53;5021261;28;20510;-70
2022/06/10 08:48:28;;;;;;;7.55;1.58;;;;;;;17.62;68.31;102001.25;5016313;28;20052;-68
2022/06/10 08:51:07;;;;;;;6.57;1.70;;;;;;;17.78;68.11;101996.88;4985517;28;20053;-68
2022/06/10 08:54:05;;;;;;;6.40;1.52;;;;;;;17.83;67.89;101987.50;5019603;28;20037;-68
2022/06/10 08:56:34;;;;;;;6.00;1.30;;;;;;;17.91;69.28;101991.91;5003295;28;20941;-68
2022/06/10 08:59:08;;;;;;;7.13;1.42;;;;;;;17.90;68.23;101987.66;4986126;28;20105;-68
2022/06/10 09:01:53;;;;;;;9.88;1.17;;;;;;;17.95;68.50;101992.38;5003646;28;20483;-68
2022/06/10 09:04:22;;;;;;;5.93;1.45;;;;;;;17.99;67.04;101986.59;4986052;28;20044;-68
2022/06/10 09:06:54;;;;;;;8.13;1.00;;;;;;;18.17;67.69;101991.53;5002489;28;20037;-68
2022/06/10 09:09:25;;;;;;;4.05;1.13;;;;;;;18.37;67.01;102001.53;5002883;28;20053;-68
2022/06/10 09:12:19;;;;;;;5.65;1.60;;;;;;;18.60;67.17;101986.53;5005503;28;20088;-68
2022/06/10 09:14:45;;;;;;;9.63;1.17;;;;;;;18.69;65.54;101989.91;4988700;28;20488;-68
2022/06/10 09:17:37;;;;;;;5.40;1.17;;;;;;;18.83;65.91;101989.09;5015630;28;20038;-68
2022/06/10 09:20:11;;;;;;;9.65;1.02;;;;;;;18.93;65.64;101990.63;4982959;28;20120;-68
2022/06/10 09:22:45;;;;;;;6.38;1.08;;;;;;;18.98;66.08;101986.44;5003569;28;20380;-68
2022/06/10 09:25:15;;;;;;;6.60;1.20;;;;;;;19.03;65.37;101986.72;4999160;28;20046;-68
2022/06/10 09:27:44;;;;;;;10.10;1.05;;;;;;;19.00;66.87;101987.06;5016643;28;20136;-68
2022/06/10 09:30:14;;;;;;;4.15;0.88;;;;;;;18.99;66.28;101990.72;4997707;28;20575;-68
2022/06/10 09:33:01;;;;;;;8.38;1.10;;;;;;;18.89;66.33;101992.00;5001731;28;20033;-68
2022/06/10 09:35:39;;;;;;;4.88;1.15;;;;;;;18.84;63.81;101985.47;4986987;28;20462;-69
2022/06/10 09:38:09;;;;;;;6.47;1.58;;;;;;;18.98;64.44;101985.66;5000931;28;20139;-68
2022/06/10 09:40:38;;;;;;;9.65;1.55;;;;;;;19.09;65.10;101990.44;5015214;28;20042;-68
2022/06/10 09:43:33;;;;;;;8.60;1.90;;;;;;;18.85;63.86;101986.28;5008700;28;20041;-68
2022/06/10 09:46:02;;;;;;;4.63;1.00;;;;;;;18.85;65.84;101979.25;4999759;28;20081;-68
2022/06/10 09:48:52;;;;;;;9.82;1.45;;;;;;;18.98;65.35;101970.69;4983785;28;20030;-69
2022/06/10 09:51:45;;;;;;;6.43;1.00;;;;;;;19.26;62.50;101970.81;4994414;28;20035;-68
2022/06/10 09:54:22;;;;;;;9.98;1.02;;;;;;;19.37;62.51;101971.34;4991494;28;20340;-68
2022/06/10 09:57:06;;;;;;;7.97;1.50;;;;;;;19.47;63.45;101977.09;4986715;28;20042;-68
2022/06/10 09:59:50;;;;;;;7.40;1.30;;;;;;;19.49;62.70;101975.09;4991631;28;20132;-69
2022/06/10 10:02:30;;;;;;;10.05;1.25;;;;;;;19.82;61.15;101970.19;5001395;28;20038;-69
2022/06/10 10:05:11;;;;;;;5.65;1.10;;;;;;;20.17;60.79;101962.38;5002071;28;20041;-69
2022/06/10 10:07:50;;;;;;;12.35;2.00;;;;;;;20.29;60.43;101969.75;4987355;28;23207;-67
2022/06/10 10:11:17;;;;;;;13.48;1.67;;;;;;;20.28;60.33;101962.84;4988697;28;20037;-69
2022/06/10 10:14:09;;;;;;;6.13;1.30;;;;;;;20.53;61.59;101969.31;4925985;29;20102;-69
2022/06/10 10:16:40;;;;;;;4.03;1.27;;;;;;;20.55;61.22;101961.19;4923340;29;20055;-67
2022/06/10 10:19:34;;;;;;;3.38;1.60;;;;;;;20.89;60.11;101963.03;4976420;28;20761;-68
2022/06/10 10:22:08;;;;;;;;;;;;;;;20.87;58.61;101951.88;4957640;28;21856;-69
2022/06/10 10:24:44;;;;;;;6.65;1.67;;;;;;;20.97;60.01;101957.56;4999435;28;19953;-69
2022/06/10 10:27:20;;;;;;;5.75;1.30;;;;;;;20.85;57.01;101953.06;4984764;28;20042;-69
2022/06/10 10:29:50;;;;;;;10.98;1.52;;;;;;;20.98;58.10;101959.22;5004970;28;21077;-68
2022/06/10 10:32:37;;;;;;;6.05;1.30;;;;;;;21.20;58.94;101953.78;4996886;28;20084;-68
2022/06/10 10:35:18;;;;;;;7.30;1.27;;;;;;;21.51;59.79;101952.44;5003806;28;20373;-68
2022/06/10 10:37:57;;;;;;;7.30;0.90;;;;;;;21.71;59.06;101940.09;4988620;28;20026;-68
2022/06/10 10:40:45;;;;;;;6.38;1.27;;;;;;;21.81;57.41;101950.25;4989424;28;20062;-68
2022/06/10 10:43:32;;;;;;;5.10;2.00;;;;;;;22.02;56.65;101949.25;5001887;28;20451;-68
2022/06/10 10:46:04;;;;;;;4.05;0.80;;;;;;;22.15;57.02;101937.84;5001086;28;20088;-69
2022/06/10 10:48:37;;;;;;;5.27;1.10;;;;;;;22.51;55.04;101937.38;5001208;28;20034;-69
2022/06/10 10:51:11;;;;;;;12.60;3.15;;;;;;;22.72;54.38;101944.22;4986682;28;20041;-68
2022/06/10 10:53:37;;;;;;;8.50;1.98;;;;;;;22.71;53.89;101931.22;5004507;28;20037;-69
2022/06/10 10:56:04;;;;;;;6.13;1.02;;;;;;;22.79;54.23;101932.81;4988292;28;20042;-69
2022/06/10 10:58:49;;;;;;;4.50;0.93;;;;;;;22.68;53.35;101929.81;5005172;28;20423;-69
2022/06/10 11:02:05;;;;;;;8.10;1.40;;;;;;;22.59;55.00;101927.63;4964463;28;20038;-68
2022/06/10 11:04:29;;;;;;;8.07;1.40;;;;;;;22.87;54.32;101927.28;4981891;28;20053;-69
2022/06/10 11:07:03;;;;;;;7.57;1.23;;;;;;;22.96;55.66;101933.13;4989054;28;20125;-69
2022/06/10 11:09:28;;;;;;;8.88;1.17;;;;;;;23.08;55.22;101921.72;5002634;28;20034;-68
2022/06/10 11:11:56;;;;;;;8.38;1.38;;;;;;;23.16;53.88;101928.56;5016694;28;20037;-68
2022/06/10 11:14:35;;;;;;;6.10;1.13;;;;;;;23.27;52.97;101924.44;5017854;28;20383;-69
2022/06/10 11:17:06;;;;;;;7.63;1.40;;;;;;;23.40;53.72;101924.34;5004061;28;20040;-68
2022/06/10 11:19:32;;;;;;;7.95;1.50;;;;;;;23.39;54.33;101922.72;5000296;28;20096;-68
2022/06/10 11:22:03;;;;;;;8.57;1.75;;;;;;;23.37;53.58;101924.78;4989286;28;20546;-69
2022/06/10 11:24:44;;;;;;;5.38;1.08;;;;;;;23.24;53.44;101925.66;5004249;28;20061;-68
2022/06/10 11:27:37;;;;;;;7.57;1.83;;;;;;;23.45;52.27;101926.34;4999778;28;20034;-69
2022/06/10 11:30:13;;;;;;;12.25;2.08;;;;;;;23.36;52.92;101925.00;5000021;28;20494;-68
2022/06/10 11:32:47;;;;;;;10.55;1.50;;;;;;;23.40;52.15;101920.91;4998980;28;20026;-69
2022/06/10 11:35:19;;;;;;;10.35;1.55;;;;;;;23.41;53.36;101928.59;5004156;28;20038;-69
2022/06/10 11:37:48;;;;;;;5.30;1.10;;;;;;;23.39;53.45;101919.28;5001051;28;20056;-68
2022/06/10 11:40:27;;;;;;;8.88;1.15;;;;;;;23.57;53.97;101919.34;4983900;28;20093;-68
2022/06/10 11:43:03;;;;;;;4.47;1.10;;;;;;;23.63;53.17;101915.84;4996704;28;20029;-69
2022/06/10 11:45:45;;;;;;;9.38;1.98;;;;;;;23.76;54.71;101916.75;5000113;28;20163;-69
2022/06/10 11:48:26;;;;;;;6.88;1.52;;;;;;;23.76;52.94;101914.91;4999826;28;20041;-68
2022/06/10 11:51:00;;;;;;;9.25;2.10;;;;;;;23.77;51.77;101903.31;5002220;28;20055;-68
2022/06/10 11:53:35;;;;;;;8.73;1.77;;;;;;;23.54;53.03;101905.72;4993575;28;20037;-68
2022/06/10 12:01:47;;;;;;;6.40;1.85;;;;;;;24.01;53.79;101904.31;5002727;28;20030;-69
2022/06/10 12:04:17;;;;;;;6.68;1.30;;;;;;;24.26;52.45;101892.84;4987017;28;20038;-68
2022/06/10 12:07:06;;;;;;;7.78;1.35;;;;;;;24.31;53.15;101892.19;4997718;28;20033;-69